sensor_id;sensor_type;location;lat;lon;timestamp;pressure;altitude;pressure_sealevel;temperature;humidity
70314;BME280;57725;47.526;18.986;2022-10-12T00:02:14;100582.81;;;14.04;91.39
70314;BME280;57725;47.526;18.986;2022-10-12T00:04:39;100583.69;;;14.04;91.42
70314;BME280;57725;47.526;18.986;2022-10-12T00:07:05;100576.72;;;14.03;91.71
70314;BME280;57725;47.526;18.986;2022-10-12T00:09:30;100582.81;;;14.04;91.50
70314;BME280;57725;47.526;18.986;2022-10-12T00:11:58;100576.78;;;14.02;91.44
70314;BME280;57725;47.526;18.986;2022-10-12T00:14:23;100576.78;;;14.02;91.63
70314;BME280;57725;47.526;18.986;2022-10-12T00:16:48;100575.06;;;14.01;91.60
70314;BME280;57725;47.526;18.986;2022-10-12T00:19:14;100572.44;;;14.01;91.61
70314;BME280;57725;47.526;18.986;2022-10-12T00:21:44;100577.63;;;14.02;91.52
70314;BME280;57725;47.526;18.986;2022-10-12T00:24:09;100575.06;;;14.01;91.52
70314;BME280;57725;47.526;18.986;2022-10-12T00:26:37;100577.69;;;14.01;91.45
70314;BME280;57725;47.526;18.986;2022-10-12T00:29:02;100575.94;;;14.01;91.64
70314;BME280;57725;47.526;18.986;2022-10-12T00:31:31;100568.09;;;14.00;91.62
70314;BME280;57725;47.526;18.986;2022-10-12T00:33:59;100571.59;;;14.00;91.53
70314;BME280;57725;47.526;18.986;2022-10-12T00:36:28;100576.91;;;13.99;91.51
70314;BME280;57725;47.526;18.986;2022-10-12T00:38:55;100580.41;;;13.99;91.57
70314;BME280;57725;47.526;18.986;2022-10-12T00:41:23;100581.25;;;14.00;91.40
70314;BME280;57725;47.526;18.986;2022-10-12T00:43:49;100574.28;;;13.99;91.54
70314;BME280;57725;47.526;18.986;2022-10-12T00:46:23;100576.06;;;13.98;91.59
70314;BME280;57725;47.526;18.986;2022-10-12T00:48:54;100575.19;;;13.98;91.51
70314;BME280;57725;47.526;18.986;2022-10-12T00:51:21;100571.72;;;13.97;91.33
70314;BME280;57725;47.526;18.986;2022-10-12T00:53:53;100575.19;;;13.98;91.55
70314;BME280;57725;47.526;18.986;2022-10-12T00:56:23;100574.34;;;13.97;91.45
70314;BME280;57725;47.526;18.986;2022-10-12T00:58:50;100577.84;;;13.98;91.40
70314;BME280;57725;47.526;18.986;2022-10-12T01:01:16;100579.59;;;13.97;91.51
70314;BME280;57725;47.526;18.986;2022-10-12T01:03:45;100583.16;;;13.96;91.42
70314;BME280;57725;47.526;18.986;2022-10-12T01:06:11;100593.66;;;13.96;91.51
70314;BME280;57725;47.526;18.986;2022-10-12T01:08:40;100590.22;;;13.96;91.56
70314;BME280;57725;47.526;18.986;2022-10-12T01:11:06;100591.03;;;13.96;91.58
70314;BME280;57725;47.526;18.986;2022-10-12T01:13:32;100592.00;;;13.95;91.42
70314;BME280;57725;47.526;18.986;2022-10-12T01:16:20;100595.53;;;13.94;91.37
70314;BME280;57725;47.526;18.986;2022-10-12T01:21:21;100592.91;;;13.94;91.50
70314;BME280;57725;47.526;18.986;2022-10-12T01:36:38;100601.72;;;13.93;91.32
70314;BME280;57725;47.526;18.986;2022-10-12T01:39:19;100605.25;;;13.92;91.61
70314;BME280;57725;47.526;18.986;2022-10-12T01:41:59;100599.16;;;13.92;91.51
70314;BME280;57725;47.526;18.986;2022-10-12T01:44:27;100608.75;;;13.93;91.63
70314;BME280;57725;47.526;18.986;2022-10-12T01:46:55;100602.63;;;13.92;91.55
70314;BME280;57725;47.526;18.986;2022-10-12T01:49:23;100602.69;;;13.91;91.62
70314;BME280;57725;47.526;18.986;2022-10-12T01:55:05;100602.69;;;13.91;91.56
70314;BME280;57725;47.526;18.986;2022-10-12T02:07:39;100608.03;;;13.89;91.50
70314;BME280;57725;47.526;18.986;2022-10-12T02:10:11;100608.88;;;13.90;91.45
70314;BME280;57725;47.526;18.986;2022-10-12T02:12:40;100601.91;;;13.89;91.48
70314;BME280;57725;47.526;18.986;2022-10-12T02:15:09;100606.31;;;13.88;91.50
70314;BME280;57725;47.526;18.986;2022-10-12T02:17:37;100599.28;;;13.89;91.47
70314;BME280;57725;47.526;18.986;2022-10-12T02:20:05;100601.91;;;13.89;91.68
70314;BME280;57725;47.526;18.986;2022-10-12T02:22:36;100604.53;;;13.89;91.51
70314;BME280;57725;47.526;18.986;2022-10-12T02:25:06;100603.69;;;13.88;91.47
70314;BME280;57725;47.526;18.986;2022-10-12T02:27:36;100610.72;;;13.88;91.44
70314;BME280;57725;47.526;18.986;2022-10-12T02:30:05;100600.19;;;13.88;91.46
70314;BME280;57725;47.526;18.986;2022-10-12T02:32:47;100601.13;;;13.87;91.32
70314;BME280;57725;47.526;18.986;2022-10-12T02:38:02;100596.72;;;13.87;91.40
70314;BME280;57725;47.526;18.986;2022-10-12T02:40:39;100593.25;;;13.87;91.66
70314;BME280;57725;47.526;18.986;2022-10-12T02:43:25;100599.41;;;13.86;91.60
70314;BME280;57725;47.526;18.986;2022-10-12T02:45:54;100603.06;;;13.83;91.54
70314;BME280;57725;47.526;18.986;2022-10-12T02:48:25;100603.81;;;13.85;91.60
70314;BME280;57725;47.526;18.986;2022-10-12T02:50:55;100608.22;;;13.85;91.53
70314;BME280;57725;47.526;18.986;2022-10-12T02:53:23;100609.06;;;13.85;91.40
70314;BME280;57725;47.526;18.986;2022-10-12T02:55:51;100609.22;;;13.82;91.38
70314;BME280;57725;47.526;18.986;2022-10-12T02:58:17;100617.06;;;13.84;91.43
70314;BME280;57725;47.526;18.986;2022-10-12T03:00:45;100616.09;;;13.85;91.36
70314;BME280;57725;47.526;18.986;2022-10-12T03:03:13;100606.59;;;13.82;91.27
70314;BME280;57725;47.526;18.986;2022-10-12T03:05:38;100616.19;;;13.83;91.39
70314;BME280;57725;47.526;18.986;2022-10-12T03:08:03;100612.72;;;13.83;91.32
70314;BME280;57725;47.526;18.986;2022-10-12T03:10:29;100610.09;;;13.83;91.36
70314;BME280;57725;47.526;18.986;2022-10-12T03:12:57;100614.50;;;13.82;91.43
70314;BME280;57725;47.526;18.986;2022-10-12T03:15:22;100608.38;;;13.82;91.24
70314;BME280;57725;47.526;18.986;2022-10-12T03:17:48;100609.28;;;13.81;91.46
70314;BME280;57725;47.526;18.986;2022-10-12T03:20:13;100613.63;;;13.82;91.23
70314;BME280;57725;47.526;18.986;2022-10-12T03:22:41;100611.84;;;13.82;91.48
70314;BME280;57725;47.526;18.986;2022-10-12T03:25:06;100604.09;;;13.79;91.55
70314;BME280;57725;47.526;18.986;2022-10-12T03:27:34;100606.66;;;13.81;91.56
70314;BME280;57725;47.526;18.986;2022-10-12T03:29:59;100604.97;;;13.80;91.48
70314;BME280;57725;47.526;18.986;2022-10-12T03:32:31;100604.91;;;13.81;91.25
70314;BME280;57725;47.526;18.986;2022-10-12T03:34:57;100611.06;;;13.80;91.49
70314;BME280;57725;47.526;18.986;2022-10-12T03:37:22;100612.84;;;13.80;91.37
70314;BME280;57725;47.526;18.986;2022-10-12T03:39:47;100612.84;;;13.80;91.47
70314;BME280;57725;47.526;18.986;2022-10-12T03:42:13;100604.97;;;13.80;91.48
70314;BME280;57725;47.526;18.986;2022-10-12T03:44:38;100609.34;;;13.79;91.53
70314;BME280;57725;47.526;18.986;2022-10-12T03:47:04;100606.78;;;13.77;91.31
70314;BME280;57725;47.526;18.986;2022-10-12T03:49:29;100609.34;;;13.79;91.47
70314;BME280;57725;47.526;18.986;2022-10-12T03:51:57;100607.66;;;13.78;91.26
70314;BME280;57725;47.526;18.986;2022-10-12T03:54:25;100610.28;;;13.78;91.48
70314;BME280;57725;47.526;18.986;2022-10-12T03:56:50;100613.75;;;13.78;91.57
70314;BME280;57725;47.526;18.986;2022-10-12T03:59:18;100608.50;;;13.78;91.36
70314;BME280;57725;47.526;18.986;2022-10-12T04:01:46;100606.78;;;13.77;91.33
70314;BME280;57725;47.526;18.986;2022-10-12T04:04:12;100602.47;;;13.76;91.39
70314;BME280;57725;47.526;18.986;2022-10-12T04:06:37;100604.22;;;13.76;91.20
70314;BME280;57725;47.526;18.986;2022-10-12T04:09:03;100598.06;;;13.77;91.33
70314;BME280;57725;47.526;18.986;2022-10-12T04:11:28;100603.38;;;13.75;91.35
70314;BME280;57725;47.526;18.986;2022-10-12T04:13:56;100605.09;;;13.76;91.50
70314;BME280;57725;47.526;18.986;2022-10-12T04:16:26;100603.38;;;13.75;91.35
70314;BME280;57725;47.526;18.986;2022-10-12T04:18:54;100602.53;;;13.75;91.53
70314;BME280;57725;47.526;18.986;2022-10-12T04:21:20;100610.41;;;13.75;91.49
70314;BME280;57725;47.526;18.986;2022-10-12T04:23:47;100611.25;;;13.75;91.46
70314;BME280;57725;47.526;18.986;2022-10-12T04:26:12;100612.19;;;13.74;91.34
70314;BME280;57725;47.526;18.986;2022-10-12T04:28:40;100612.19;;;13.74;91.30
70314;BME280;57725;47.526;18.986;2022-10-12T04:31:05;100611.31;;;13.74;91.41
70314;BME280;57725;47.526;18.986;2022-10-12T04:33:30;100607.84;;;13.73;91.22
70314;BME280;57725;47.526;18.986;2022-10-12T04:35:58;100609.53;;;13.74;91.40
70314;BME280;57725;47.526;18.986;2022-10-12T04:38:24;100613.09;;;13.73;91.38
70314;BME280;57725;47.526;18.986;2022-10-12T04:40:54;100609.63;;;13.73;91.23
70314;BME280;57725;47.526;18.986;2022-10-12T04:43:19;100606.16;;;13.72;91.22
70314;BME280;57725;47.526;18.986;2022-10-12T04:45:58;100613.19;;;13.72;91.34
70314;BME280;57725;47.526;18.986;2022-10-12T04:48:27;100612.34;;;13.71;91.30
70314;BME280;57725;47.526;18.986;2022-10-12T04:50:55;100612.34;;;13.71;91.17
70314;BME280;57725;47.526;18.986;2022-10-12T04:53:22;100608.84;;;13.71;91.35
70314;BME280;57725;47.526;18.986;2022-10-12T04:55:48;100619.38;;;13.71;91.27
70314;BME280;57725;47.526;18.986;2022-10-12T04:58:13;100614.97;;;13.71;91.20
70314;BME280;57725;47.526;18.986;2022-10-12T05:00:39;100621.13;;;13.70;91.29
70314;BME280;57725;47.526;18.986;2022-10-12T05:03:07;100616.81;;;13.69;91.46
70314;BME280;57725;47.526;18.986;2022-10-12T05:05:32;100631.66;;;13.70;91.41
70314;BME280;57725;47.526;18.986;2022-10-12T05:08:03;100633.41;;;13.70;91.15
70314;BME280;57725;47.526;18.986;2022-10-12T05:10:31;100628.22;;;13.68;91.29
70314;BME280;57725;47.526;18.986;2022-10-12T05:12:57;100629.94;;;13.69;91.18
70314;BME280;57725;47.526;18.986;2022-10-12T05:15:22;100632.56;;;13.69;91.26
70314;BME280;57725;47.526;18.986;2022-10-12T05:17:48;100632.63;;;13.68;91.29
70314;BME280;57725;47.526;18.986;2022-10-12T05:20:15;100636.97;;;13.69;91.18
70314;BME280;57725;47.526;18.986;2022-10-12T05:22:43;100638.75;;;13.68;91.37
70314;BME280;57725;47.526;18.986;2022-10-12T05:25:08;100638.75;;;13.68;91.48
70314;BME280;57725;47.526;18.986;2022-10-12T05:27:34;100643.19;;;13.66;91.26
70314;BME280;57725;47.526;18.986;2022-10-12T05:30:02;100631.78;;;13.67;91.32
70314;BME280;57725;47.526;18.986;2022-10-12T05:32:35;100641.44;;;13.67;91.24
70314;BME280;57725;47.526;18.986;2022-10-12T05:35:00;100634.47;;;13.66;91.28
70314;BME280;57725;47.526;18.986;2022-10-12T05:37:26;100635.31;;;13.66;91.38
70314;BME280;57725;47.526;18.986;2022-10-12T05:39:51;100631.91;;;13.64;91.21
70314;BME280;57725;47.526;18.986;2022-10-12T05:42:17;100641.50;;;13.65;91.21
70314;BME280;57725;47.526;18.986;2022-10-12T05:44:45;100650.16;;;13.67;91.06
70314;BME280;57725;47.526;18.986;2022-10-12T05:47:12;100648.50;;;13.65;91.31
70314;BME280;57725;47.526;18.986;2022-10-12T05:49:37;100652.00;;;13.65;91.18
70314;BME280;57725;47.526;18.986;2022-10-12T05:52:12;100652.00;;;13.65;91.39
70314;BME280;57725;47.526;18.986;2022-10-12T05:54:44;100650.28;;;13.64;91.23
70314;BME280;57725;47.526;18.986;2022-10-12T05:57:12;100646.81;;;13.64;91.18
70314;BME280;57725;47.526;18.986;2022-10-12T05:59:41;100650.28;;;13.64;91.35
70314;BME280;57725;47.526;18.986;2022-10-12T06:02:12;100647.66;;;13.64;91.24
70314;BME280;57725;47.526;18.986;2022-10-12T06:04:37;100649.44;;;13.64;91.22
70314;BME280;57725;47.526;18.986;2022-10-12T06:07:03;100654.69;;;13.64;91.30
70314;BME280;57725;47.526;18.986;2022-10-12T06:09:28;100663.44;;;13.64;91.30
70314;BME280;57725;47.526;18.986;2022-10-12T06:11:56;100664.34;;;13.63;91.31
70314;BME280;57725;47.526;18.986;2022-10-12T06:14:21;100662.63;;;13.62;91.32
70314;BME280;57725;47.526;18.986;2022-10-12T06:16:49;100654.75;;;13.62;91.30
70314;BME280;57725;47.526;18.986;2022-10-12T06:19:15;100660.00;;;13.62;91.43
70314;BME280;57725;47.526;18.986;2022-10-12T06:21:44;100657.38;;;13.62;91.36
70314;BME280;57725;47.526;18.986;2022-10-12T06:24:12;100659.16;;;13.62;91.42
70314;BME280;57725;47.526;18.986;2022-10-12T06:26:37;100660.00;;;13.62;91.45
70314;BME280;57725;47.526;18.986;2022-10-12T06:29:03;100660.84;;;13.63;91.47
70314;BME280;57725;47.526;18.986;2022-10-12T06:31:28;100660.94;;;13.61;91.51
70314;BME280;57725;47.526;18.986;2022-10-12T06:33:54;100662.72;;;13.61;91.33
70314;BME280;57725;47.526;18.986;2022-10-12T06:36:22;100669.66;;;13.62;91.54
70314;BME280;57725;47.526;18.986;2022-10-12T06:38:48;100657.53;;;13.59;91.40
70314;BME280;57725;47.526;18.986;2022-10-12T06:41:16;100663.59;;;13.61;91.40
70314;BME280;57725;47.526;18.986;2022-10-12T06:43:41;100667.97;;;13.61;91.61
70314;BME280;57725;47.526;18.986;2022-10-12T06:46:07;100670.50;;;13.62;91.48
70314;BME280;57725;47.526;18.986;2022-10-12T06:48:35;100668.84;;;13.61;91.64
70314;BME280;57725;47.526;18.986;2022-10-12T06:51:02;100674.91;;;13.62;91.64
70314;BME280;57725;47.526;18.986;2022-10-12T06:53:32;100678.41;;;13.62;91.53
70314;BME280;57725;47.526;18.986;2022-10-12T06:56:09;100680.25;;;13.60;91.65
70314;BME280;57725;47.526;18.986;2022-10-12T06:58:34;100677.63;;;13.60;91.60
70314;BME280;57725;47.526;18.986;2022-10-12T07:01:04;100680.25;;;13.60;91.77
70314;BME280;57725;47.526;18.986;2022-10-12T07:03:32;100681.97;;;13.61;91.76
70314;BME280;57725;47.526;18.986;2022-10-12T07:06:11;100684.59;;;13.61;91.64
70314;BME280;57725;47.526;18.986;2022-10-12T07:08:37;100682.78;;;13.62;91.72
70314;BME280;57725;47.526;18.986;2022-10-12T07:11:07;100689.84;;;13.61;91.79
70314;BME280;57725;47.526;18.986;2022-10-12T07:13:33;100681.13;;;13.61;91.83
70314;BME280;57725;47.526;18.986;2022-10-12T07:15:59;100681.13;;;13.61;91.65
70314;BME280;57725;47.526;18.986;2022-10-12T07:18:26;100687.22;;;13.61;91.60
70314;BME280;57725;47.526;18.986;2022-10-12T07:20:59;100682.78;;;13.62;91.80
70314;BME280;57725;47.526;18.986;2022-10-12T07:23:26;100683.75;;;13.61;91.83
70314;BME280;57725;47.526;18.986;2022-10-12T07:25:52;100679.34;;;13.61;91.81
70314;BME280;57725;47.526;18.986;2022-10-12T07:28:20;100686.38;;;13.61;91.67
70314;BME280;57725;47.526;18.986;2022-10-12T07:30:46;100678.50;;;13.61;91.83
70314;BME280;57725;47.526;18.986;2022-10-12T07:33:12;100681.13;;;13.61;91.75
70314;BME280;57725;47.526;18.986;2022-10-12T07:35:40;100677.63;;;13.60;91.75
70314;BME280;57725;47.526;18.986;2022-10-12T07:38:06;100679.34;;;13.61;91.56
70314;BME280;57725;47.526;18.986;2022-10-12T07:40:31;100681.97;;;13.61;91.78
70314;BME280;57725;47.526;18.986;2022-10-12T07:43:00;100672.28;;;13.62;91.82
70314;BME280;57725;47.526;18.986;2022-10-12T07:45:26;100674.91;;;13.62;91.77
70314;BME280;57725;47.526;18.986;2022-10-12T07:47:54;100678.50;;;13.61;91.77
70314;BME280;57725;47.526;18.986;2022-10-12T07:50:20;100676.72;;;13.61;91.93
70314;BME280;57725;47.526;18.986;2022-10-12T07:52:45;100673.13;;;13.62;91.74
70314;BME280;57725;47.526;18.986;2022-10-12T07:55:11;100680.16;;;13.62;91.57
70314;BME280;57725;47.526;18.986;2022-10-12T07:57:38;100678.41;;;13.62;91.92
70314;BME280;57725;47.526;18.986;2022-10-12T08:00:05;100681.03;;;13.62;91.70
70314;BME280;57725;47.526;18.986;2022-10-12T08:02:30;100680.16;;;13.62;91.89
70314;BME280;57725;47.526;18.986;2022-10-12T08:04:55;100682.78;;;13.62;91.94
70314;BME280;57725;47.526;18.986;2022-10-12T08:07:21;100683.66;;;13.62;91.78
70314;BME280;57725;47.526;18.986;2022-10-12T08:09:47;100681.03;;;13.62;91.82
70314;BME280;57725;47.526;18.986;2022-10-12T08:12:13;100674.00;;;13.63;91.86
70314;BME280;57725;47.526;18.986;2022-10-12T08:14:39;100679.25;;;13.63;91.87
70314;BME280;57725;47.526;18.986;2022-10-12T08:17:04;100681.88;;;13.63;91.98
70314;BME280;57725;47.526;18.986;2022-10-12T08:19:34;100680.09;;;13.63;91.84
70314;BME280;57725;47.526;18.986;2022-10-12T08:22:02;100680.09;;;13.63;91.97
70314;BME280;57725;47.526;18.986;2022-10-12T08:24:30;100674.84;;;13.63;91.97
70314;BME280;57725;47.526;18.986;2022-10-12T08:26:57;100685.31;;;13.65;92.00
70314;BME280;57725;47.526;18.986;2022-10-12T08:29:23;100679.19;;;13.64;91.89
70314;BME280;57725;47.526;18.986;2022-10-12T08:31:52;100667.81;;;13.64;91.88
70314;BME280;57725;47.526;18.986;2022-10-12T08:34:18;100673.94;;;13.64;91.77
70314;BME280;57725;47.526;18.986;2022-10-12T08:36:44;100672.22;;;13.63;91.87
70314;BME280;57725;47.526;18.986;2022-10-12T08:39:09;100674.72;;;13.66;91.85
70314;BME280;57725;47.526;18.986;2022-10-12T08:41:51;100679.13;;;13.66;91.80
70314;BME280;57725;47.526;18.986;2022-10-12T08:45:04;100673.03;;;13.65;91.75
70314;BME280;57725;47.526;18.986;2022-10-12T08:47:43;100673.03;;;13.65;92.12
70314;BME280;57725;47.526;18.986;2022-10-12T08:50:26;100672.09;;;13.66;91.84
70314;BME280;57725;47.526;18.986;2022-10-12T08:53:00;100675.59;;;13.67;91.82
70314;BME280;57725;47.526;18.986;2022-10-12T08:55:39;100670.34;;;13.67;91.89
70314;BME280;57725;47.526;18.986;2022-10-12T08:58:14;100676.44;;;13.67;91.92
70314;BME280;57725;47.526;18.986;2022-10-12T09:00:40;100671.19;;;13.67;91.73
70314;BME280;57725;47.526;18.986;2022-10-12T09:03:22;100675.53;;;13.68;91.91
70314;BME280;57725;47.526;18.986;2022-10-12T09:05:56;100677.28;;;13.68;91.92
70314;BME280;57725;47.526;18.986;2022-10-12T09:14:18;100674.66;;;13.68;91.66
70314;BME280;57725;47.526;18.986;2022-10-12T09:16:48;100673.81;;;13.67;91.81
70314;BME280;57725;47.526;18.986;2022-10-12T09:19:23;100682.50;;;13.69;92.03
70314;BME280;57725;47.526;18.986;2022-10-12T09:21:51;100671.91;;;13.71;92.01
70314;BME280;57725;47.526;18.986;2022-10-12T09:24:25;100678.03;;;13.71;91.84
70314;BME280;57725;47.526;18.986;2022-10-12T09:26:56;100680.66;;;13.71;91.91
70314;BME280;57725;47.526;18.986;2022-10-12T09:29:30;100680.66;;;13.71;91.87
70314;BME280;57725;47.526;18.986;2022-10-12T09:34:30;100674.38;;;13.74;91.82
70314;BME280;57725;47.526;18.986;2022-10-12T09:37:01;100670.06;;;13.73;91.93
70314;BME280;57725;47.526;18.986;2022-10-12T09:39:32;100670.06;;;13.73;91.96
70314;BME280;57725;47.526;18.986;2022-10-12T09:41:59;100675.25;;;13.74;91.89
70314;BME280;57725;47.526;18.986;2022-10-12T09:44:35;100678.72;;;13.75;92.02
70314;BME280;57725;47.526;18.986;2022-10-12T09:47:12;100680.44;;;13.76;91.95
70314;BME280;57725;47.526;18.986;2022-10-12T09:49:55;100679.59;;;13.75;91.92
70314;BME280;57725;47.526;18.986;2022-10-12T09:52:27;100678.66;;;13.76;91.87
70314;BME280;57725;47.526;18.986;2022-10-12T09:55:25;100683.00;;;13.77;91.89
70314;BME280;57725;47.526;18.986;2022-10-12T09:57:58;100682.09;;;13.78;91.74
70314;BME280;57725;47.526;18.986;2022-10-12T10:00:32;100675.13;;;13.77;92.02
70314;BME280;57725;47.526;18.986;2022-10-12T10:02:59;100686.44;;;13.80;91.89
70314;BME280;57725;47.526;18.986;2022-10-12T10:05:27;100683.81;;;13.80;91.89
70314;BME280;57725;47.526;18.986;2022-10-12T10:07:53;100681.16;;;13.80;91.88
70314;BME280;57725;47.526;18.986;2022-10-12T10:10:49;100686.38;;;13.81;91.79
70314;BME280;57725;47.526;18.986;2022-10-12T10:13:19;100681.97;;;13.82;91.87
70314;BME280;57725;47.526;18.986;2022-10-12T10:15:48;100681.09;;;13.81;91.94
70314;BME280;57725;47.526;18.986;2022-10-12T10:18:33;100687.22;;;13.82;91.68
70314;BME280;57725;47.526;18.986;2022-10-12T10:21:01;100685.38;;;13.84;91.82
70314;BME280;57725;47.526;18.986;2022-10-12T10:23:43;100680.13;;;13.84;91.90
70314;BME280;57725;47.526;18.986;2022-10-12T10:26:17;100681.00;;;13.84;91.90
70314;BME280;57725;47.526;18.986;2022-10-12T10:28:46;100686.16;;;13.86;91.84
70314;BME280;57725;47.526;18.986;2022-10-12T10:33:40;100679.13;;;13.86;91.97
70314;BME280;57725;47.526;18.986;2022-10-12T10:36:19;100679.97;;;13.87;91.85
70314;BME280;57725;47.526;18.986;2022-10-12T10:39:01;100678.19;;;13.87;91.93
70314;BME280;57725;47.526;18.986;2022-10-12T10:41:33;100679.06;;;13.88;91.84
70314;BME280;57725;47.526;18.986;2022-10-12T10:44:00;100672.94;;;13.87;91.70
70314;BME280;57725;47.526;18.986;2022-10-12T10:46:31;100681.63;;;13.89;91.88
70314;BME280;57725;47.526;18.986;2022-10-12T10:49:03;100671.97;;;13.90;91.82
70314;BME280;57725;47.526;18.986;2022-10-12T10:51:46;100676.31;;;13.91;91.91
70314;BME280;57725;47.526;18.986;2022-10-12T10:57:04;100671.91;;;13.91;91.67
70314;BME280;57725;47.526;18.986;2022-10-12T10:59:41;100674.47;;;13.93;91.88
70314;BME280;57725;47.526;18.986;2022-10-12T11:05:15;100663.03;;;13.94;91.86
70314;BME280;57725;47.526;18.986;2022-10-12T11:07:52;100663.88;;;13.94;91.91
70314;BME280;57725;47.526;18.986;2022-10-12T11:15:53;100661.19;;;13.96;92.04
70314;BME280;57725;47.526;18.986;2022-10-12T11:19:05;100657.63;;;13.97;91.95
70314;BME280;57725;47.526;18.986;2022-10-12T11:21:15;100664.59;;;13.98;91.77
70314;BME280;57725;47.526;18.986;2022-10-12T11:26:21;100658.34;;;14.00;92.00
70314;BME280;57725;47.526;18.986;2022-10-12T11:28:47;100660.13;;;14.00;91.92
70314;BME280;57725;47.526;18.986;2022-10-12T11:31:18;100658.34;;;14.00;91.98
70314;BME280;57725;47.526;18.986;2022-10-12T11:33:46;100661.75;;;14.02;91.96
70314;BME280;57725;47.526;18.986;2022-10-12T11:36:14;100661.69;;;14.04;92.10
70314;BME280;57725;47.526;18.986;2022-10-12T11:38:56;100663.41;;;14.05;92.15
70314;BME280;57725;47.526;18.986;2022-10-12T11:41:46;100659.88;;;14.06;91.88
70314;BME280;57725;47.526;18.986;2022-10-12T11:46:55;100645.78;;;14.07;91.90
70314;BME280;57725;47.526;18.986;2022-10-12T11:51:49;100643.16;;;14.07;92.03
70314;BME280;57725;47.526;18.986;2022-10-12T11:54:54;100643.00;;;14.10;91.77
70314;BME280;57725;47.526;18.986;2022-10-12T11:57:27;100648.25;;;14.10;91.90
70314;BME280;57725;47.526;18.986;2022-10-12T12:00:18;100647.28;;;14.12;91.90
70314;BME280;57725;47.526;18.986;2022-10-12T12:03:47;100644.66;;;14.12;91.98
70314;BME280;57725;47.526;18.986;2022-10-12T12:05:41;100646.34;;;14.13;91.93
70314;BME280;57725;47.526;18.986;2022-10-12T12:08:24;100641.97;;;14.14;91.75
70314;BME280;57725;47.526;18.986;2022-10-12T12:11:27;100639.25;;;14.16;91.84
70314;BME280;57725;47.526;18.986;2022-10-12T12:17:24;100630.44;;;14.17;92.05
70314;BME280;57725;47.526;18.986;2022-10-12T12:19:51;100633.00;;;14.18;92.07
70314;BME280;57725;47.526;18.986;2022-10-12T12:22:30;100633.88;;;14.19;91.89
70314;BME280;57725;47.526;18.986;2022-10-12T12:27:38;100624.09;;;14.21;91.96
70314;BME280;57725;47.526;18.986;2022-10-12T12:30:29;100628.44;;;14.22;91.90
70314;BME280;57725;47.526;18.986;2022-10-12T12:35:25;100628.38;;;14.23;91.95
70314;BME280;57725;47.526;18.986;2022-10-12T12:40:34;100617.00;;;14.23;91.91
70314;BME280;57725;47.526;18.986;2022-10-12T12:53:55;100617.66;;;14.28;91.89
70314;BME280;57725;47.526;18.986;2022-10-12T13:12:13;100609.53;;;14.32;91.90
70314;BME280;57725;47.526;18.986;2022-10-12T13:15:12;100607.75;;;14.33;91.80
70314;BME280;57725;47.526;18.986;2022-10-12T13:18:06;100607.69;;;14.34;91.79
70314;BME280;57725;47.526;18.986;2022-10-12T13:20:47;100606.84;;;14.34;91.75
70314;BME280;57725;47.526;18.986;2022-10-12T13:23:18;100604.16;;;14.35;91.79
70314;BME280;57725;47.526;18.986;2022-10-12T13:26:00;100606.78;;;14.35;91.61
70314;BME280;57725;47.526;18.986;2022-10-12T13:28:29;100604.06;;;14.37;91.79
70314;BME280;57725;47.526;18.986;2022-10-12T13:31:04;100601.44;;;14.37;91.59
70314;BME280;57725;47.526;18.986;2022-10-12T13:33:46;100602.31;;;14.37;91.76
70314;BME280;57725;47.526;18.986;2022-10-12T13:36:24;100606.59;;;14.40;91.62
70314;BME280;57725;47.526;18.986;2022-10-12T13:38:57;100608.38;;;14.39;91.46
70314;BME280;57725;47.526;18.986;2022-10-12T13:41:27;100610.09;;;14.40;91.56
70314;BME280;57725;47.526;18.986;2022-10-12T13:49:27;100598.66;;;14.41;91.62
70314;BME280;57725;47.526;18.986;2022-10-12T13:51:55;100594.25;;;14.42;91.51
70314;BME280;57725;47.526;18.986;2022-10-12T13:56:58;100589.81;;;14.42;91.54
70314;BME280;57725;47.526;18.986;2022-10-12T13:59:27;100588.88;;;14.43;91.47
70314;BME280;57725;47.526;18.986;2022-10-12T14:01:56;100588.81;;;14.45;91.49
70314;BME280;57725;47.526;18.986;2022-10-12T14:04:28;100587.97;;;14.44;91.58
70314;BME280;57725;47.526;18.986;2022-10-12T14:07:02;100589.66;;;14.45;91.61
70314;BME280;57725;47.526;18.986;2022-10-12T14:09:39;100595.78;;;14.46;91.35
70314;BME280;57725;47.526;18.986;2022-10-12T14:12:09;100591.38;;;14.46;91.26
70314;BME280;57725;47.526;18.986;2022-10-12T14:14:36;100586.97;;;14.47;91.42
70314;BME280;57725;47.526;18.986;2022-10-12T14:17:06;100593.94;;;14.48;91.48
70314;BME280;57725;47.526;18.986;2022-10-12T14:19:42;100584.25;;;14.48;91.57
70314;BME280;57725;47.526;18.986;2022-10-12T14:22:10;100585.97;;;14.49;91.29
70314;BME280;57725;47.526;18.986;2022-10-12T14:24:36;100582.50;;;14.49;91.20
70314;BME280;57725;47.526;18.986;2022-10-12T14:27:04;100587.69;;;14.51;91.30
70314;BME280;57725;47.526;18.986;2022-10-12T14:32:06;100585.06;;;14.51;91.11
70314;BME280;57725;47.526;18.986;2022-10-12T14:39:42;100579.72;;;14.52;91.00
70314;BME280;57725;47.526;18.986;2022-10-12T14:42:26;100580.47;;;14.54;91.22
70314;BME280;57725;47.526;18.986;2022-10-12T14:44:54;100583.97;;;14.55;91.03
70314;BME280;57725;47.526;18.986;2022-10-12T14:47:37;100581.31;;;14.55;91.08
70314;BME280;57725;47.526;18.986;2022-10-12T14:50:05;100584.91;;;14.54;91.23
70314;BME280;57725;47.526;18.986;2022-10-12T14:55:05;100580.41;;;14.56;91.13